createdAt,value
2019-01-04T00:01:29.022Z,100174.90
2019-01-04T00:04:33.756Z,100171.44
2019-01-04T00:07:38.190Z,100190.38
2019-01-04T00:10:42.633Z,100193.64
2019-01-04T00:13:47.326Z,100196.05
2019-01-04T00:16:51.762Z,100196.05
2019-01-04T00:19:56.207Z,100188.58
2019-01-04T00:23:00.640Z,100182.77
2019-01-04T00:26:05.150Z,100179.16
2019-01-04T00:29:09.859Z,100180.47
2019-01-04T00:32:14.297Z,100183.59
2019-01-04T00:35:19.017Z,100178.97
2019-01-04T00:38:23.856Z,100182.02
2019-01-04T00:41:28.295Z,100179.99
2019-01-04T00:44:32.998Z,100182.16
2019-01-04T00:47:37.430Z,100184.80
2019-01-04T00:50:42.257Z,100181.98
2019-01-04T00:53:46.700Z,100184.80
2019-01-04T00:57:10.778Z,100184.94
2019-01-04T01:00:44.164Z,100181.44
2019-01-04T01:04:32.265Z,100178.00
2019-01-04T01:08:31.935Z,100180.30
2019-01-04T01:12:07.001Z,100175.98
2019-01-04T01:15:48.160Z,100167.62
2019-01-04T01:19:36.450Z,100170.13
2019-01-04T01:23:06.845Z,100164.72
2019-01-04T01:26:33.080Z,100164.23
2019-01-04T01:30:21.150Z,100159.09
2019-01-04T01:33:54.019Z,100157.73
2019-01-04T01:37:36.419Z,100160.58
2019-01-04T01:41:31.510Z,100156.43
2019-01-04T01:44:52.421Z,100165.98
2019-01-04T01:47:57.092Z,100159.08
2019-01-04T01:51:17.903Z,100150.95
2019-01-04T01:54:22.340Z,100163.88
2019-01-04T01:57:27.059Z,100156.61
2019-01-04T02:00:31.504Z,100152.16
2019-01-04T02:03:36.197Z,100157.26
2019-01-04T02:06:40.929Z,100153.78
2019-01-04T02:09:45.363Z,100156.30
2019-01-04T02:12:49.814Z,100156.50
2019-01-04T02:15:54.522Z,100153.68
2019-01-04T02:18:58.959Z,100151.86
2019-01-04T02:22:03.403Z,100160.95
2019-01-04T02:25:07.931Z,100164.43
2019-01-04T02:28:12.365Z,100162.09
2019-01-04T02:31:16.817Z,100165.58
2019-01-04T02:34:21.258Z,100166.41
2019-01-04T02:37:25.699Z,100175.00
2019-01-04T02:40:30.143Z,100174.03
2019-01-04T02:43:34.829Z,100174.52
2019-01-04T02:46:39.275Z,100176.66
2019-01-04T02:49:43.720Z,100178.96
2019-01-04T02:52:48.162Z,100168.73
2019-01-04T02:55:52.626Z,100166.58
2019-01-04T02:58:57.062Z,100168.41
2019-01-04T03:02:01.813Z,100163.44
2019-01-04T03:05:06.874Z,100163.78
2019-01-04T03:08:11.552Z,100161.63
2019-01-04T03:11:15.998Z,100161.14
2019-01-04T03:14:20.436Z,100155.86
2019-01-04T03:17:24.879Z,100150.55
2019-01-04T03:20:29.332Z,100151.73
2019-01-04T03:23:33.771Z,100144.95
2019-01-04T03:26:38.509Z,100143.30
2019-01-04T03:29:42.936Z,100135.70
2019-01-04T03:32:47.385Z,100138.17
2019-01-04T03:35:52.109Z,100135.36
2019-01-04T03:38:56.525Z,100140.50
2019-01-04T03:42:01.245Z,100144.95
2019-01-04T03:45:07.120Z,100151.38
2019-01-04T03:48:11.817Z,100147.91
2019-01-04T03:51:16.255Z,100152.53
2019-01-04T03:54:20.698Z,100158.17
2019-01-04T03:57:25.397Z,100163.11
2019-01-04T04:00:29.844Z,100164.92
2019-01-04T04:03:34.282Z,100166.42
2019-01-04T04:06:38.719Z,100161.48
2019-01-04T04:09:43.164Z,100159.81
2019-01-04T04:12:47.606Z,100144.43
2019-01-04T04:15:52.044Z,100137.47
2019-01-04T04:18:56.499Z,100145.02
2019-01-04T04:22:00.930Z,100137.45
2019-01-04T04:25:05.719Z,100153.50
2019-01-04T04:28:10.165Z,100153.98
2019-01-04T04:31:14.604Z,100155.47
2019-01-04T04:34:19.057Z,100151.20
2019-01-04T04:37:23.823Z,100153.48
2019-01-04T04:40:28.265Z,100154.27
2019-01-04T04:43:32.708Z,100154.97
2019-01-04T04:46:37.150Z,100154.27
2019-01-04T04:49:41.597Z,100155.77
2019-01-04T04:52:46.050Z,100158.23
2019-01-04T04:55:50.788Z,100153.42
2019-01-04T04:58:55.224Z,100147.99
2019-01-04T05:01:59.930Z,100136.09
2019-01-04T05:05:04.377Z,100127.01
2019-01-04T05:08:08.834Z,100137.23
2019-01-04T05:11:13.260Z,100137.80
2019-01-04T05:14:17.701Z,100142.61
2019-01-04T05:17:22.456Z,100145.73
2019-01-04T05:20:27.199Z,100149.23
2019-01-04T05:23:31.680Z,100144.30
2019-01-04T05:26:36.445Z,100145.44
2019-01-04T05:29:41.182Z,100141.13
2019-01-04T05:32:45.615Z,100140.95
2019-01-04T05:35:50.054Z,100141.13
2019-01-04T05:38:54.755Z,100132.89
2019-01-04T05:41:59.195Z,100135.71
2019-01-04T05:45:04.108Z,100132.41
2019-01-04T05:48:08.546Z,100134.88
2019-01-04T05:51:13.262Z,100143.64
2019-01-04T05:54:17.703Z,100143.29
2019-01-04T05:57:22.134Z,100147.59
2019-01-04T06:00:26.588Z,100153.20
2019-01-04T06:03:31.023Z,100156.50
2019-01-04T06:06:35.462Z,100154.69
2019-01-04T06:09:39.915Z,100153.68
2019-01-04T06:12:44.344Z,100142.09
2019-01-04T06:15:49.167Z,100135.66
2019-01-04T06:18:53.602Z,100134.98
2019-01-04T06:21:58.050Z,100140.75
2019-01-04T06:25:02.497Z,100138.09
2019-01-04T06:28:07.269Z,100136.47
2019-01-04T06:31:11.720Z,100143.27
2019-01-04T06:34:16.425Z,100137.28
2019-01-04T06:37:20.865Z,100140.44
2019-01-04T06:40:25.579Z,100136.98
2019-01-04T06:43:30.335Z,100141.47
2019-01-04T06:46:34.796Z,100143.46
2019-01-04T06:49:39.206Z,100153.38
2019-01-04T06:52:43.894Z,100160.16
2019-01-04T06:55:52.836Z,100164.27
2019-01-04T06:58:57.241Z,100159.98
2019-01-04T07:02:01.984Z,100158.48
2019-01-04T07:05:07.840Z,100167.25
2019-01-04T07:08:12.555Z,100169.05
2019-01-04T07:11:17.008Z,100170.20
2019-01-04T07:14:21.454Z,100172.84
2019-01-04T07:17:25.902Z,100176.50
2019-01-04T07:20:30.346Z,100180.95
2019-01-04T07:23:34.780Z,100187.73
2019-01-04T07:26:39.614Z,100189.37
2019-01-04T07:29:44.049Z,100192.84
2019-01-04T07:32:48.495Z,100198.95
2019-01-04T07:35:53.186Z,100200.62
2019-01-04T07:38:57.620Z,100201.28
2019-01-04T07:42:02.075Z,100207.22
2019-01-04T07:45:09.417Z,100207.52
2019-01-04T07:48:13.871Z,100201.42
2019-01-04T07:51:18.581Z,100204.87
2019-01-04T07:54:23.026Z,100197.32
2019-01-04T07:57:27.738Z,100194.83
2019-01-04T08:00:32.179Z,100195.80
2019-01-04T08:03:36.640Z,100191.00
2019-01-04T08:06:41.424Z,100199.27
2019-01-04T08:09:45.863Z,100204.39
2019-01-04T08:12:50.301Z,100201.57
2019-01-04T08:15:55.000Z,100204.39
2019-01-04T08:18:59.446Z,100203.68
2019-01-04T08:22:03.895Z,100207.33
2019-01-04T08:25:09.272Z,100203.34
2019-01-04T08:28:13.719Z,100200.48
2019-01-04T08:31:18.158Z,100207.88
2019-01-04T08:34:22.602Z,100204.04
2019-01-04T08:37:27.392Z,100212.03
2019-01-04T08:40:32.123Z,100217.97
2019-01-04T08:43:36.955Z,100218.42
2019-01-04T08:46:41.896Z,100217.09
2019-01-04T08:49:46.626Z,100211.98
2019-01-04T08:52:51.069Z,100209.83
2019-01-04T08:55:55.505Z,100205.76
2019-01-04T08:58:59.948Z,100193.77
2019-01-04T09:02:04.728Z,100198.59
2019-01-04T09:05:09.163Z,100201.42
2019-01-04T09:08:13.986Z,100199.52
2019-01-04T09:11:18.421Z,100198.73
2019-01-04T09:14:23.145Z,100200.70
2019-01-04T09:17:28.080Z,100193.92
2019-01-04T09:20:32.906Z,100184.97
2019-01-04T09:23:37.645Z,100191.53
2019-01-04T09:26:42.078Z,100194.77
2019-01-04T09:29:46.523Z,100187.57
2019-01-04T09:32:50.970Z,100183.61
2019-01-04T09:35:55.404Z,100183.31
2019-01-04T09:39:03.275Z,100185.25
2019-01-04T09:42:06.639Z,100190.73
2019-01-04T09:45:11.157Z,100190.62
2019-01-04T09:48:15.891Z,100185.59
2019-01-04T09:51:20.628Z,100186.08
2019-01-04T09:54:25.356Z,100182.34
2019-01-04T09:57:30.105Z,100179.84
2019-01-04T10:00:34.818Z,100193.64
2019-01-04T10:03:39.272Z,100180.44
2019-01-04T10:06:43.704Z,100176.19
2019-01-04T10:09:48.151Z,100170.94
2019-01-04T10:12:52.609Z,100160.36
2019-01-04T10:15:57.038Z,100162.70
2019-01-04T10:19:01.767Z,100166.58
2019-01-04T10:22:06.203Z,100150.66
2019-01-04T10:25:11.531Z,100153.13
2019-01-04T10:28:15.979Z,100147.70
2019-01-04T10:31:20.410Z,100149.37
2019-01-04T10:34:24.853Z,100138.56
2019-01-04T10:37:29.538Z,100134.25
2019-01-04T10:40:33.980Z,100135.87
2019-01-04T10:43:38.686Z,100141.14
2019-01-04T10:46:43.125Z,100133.07
2019-01-04T10:49:47.560Z,100125.83
2019-01-04T10:52:52.272Z,100122.79
2019-01-04T10:55:57.002Z,100124.92
2019-01-04T10:59:01.450Z,100125.13
2019-01-04T11:02:05.874Z,100127.55
2019-01-04T11:05:10.329Z,100123.81
2019-01-04T11:08:15.108Z,100126.52
2019-01-04T11:11:19.831Z,100132.60
2019-01-04T11:14:24.283Z,100133.67
2019-01-04T11:17:28.719Z,100127.98
2019-01-04T11:20:39.683Z,100120.58
2019-01-04T11:24:12.551Z,100121.07
2019-01-04T11:27:17.380Z,100118.51
2019-01-04T11:30:26.830Z,100116.45
2019-01-04T11:33:32.820Z,100113.62
2019-01-04T11:36:56.100Z,100112.08
2019-01-04T11:40:35.190Z,100099.13
2019-01-04T11:43:47.200Z,100089.30
2019-01-04T11:47:32.881Z,100082.67
2019-01-04T11:50:56.931Z,100077.69
2019-01-04T11:54:02.101Z,100085.05
2019-01-04T11:57:06.543Z,100090.56
2019-01-04T12:00:12.329Z,100078.02
2019-01-04T12:03:16.765Z,100080.25
2019-01-04T12:06:21.542Z,100088.16
2019-01-04T12:09:25.978Z,100083.77
2019-01-04T12:12:30.419Z,100083.92
2019-01-04T12:15:34.868Z,100077.21
2019-01-04T12:18:39.300Z,100072.80
2019-01-04T12:21:44.063Z,100060.06
2019-01-04T12:24:48.502Z,100058.73
2019-01-04T12:27:52.942Z,100047.78
2019-01-04T12:30:57.395Z,100036.58
2019-01-04T12:34:01.836Z,100033.55
2019-01-04T12:37:06.277Z,100038.13
2019-01-04T12:40:11.015Z,100051.09
2019-01-04T12:43:15.460Z,100056.05
2019-01-04T12:46:19.972Z,100048.08
2019-01-04T12:49:24.404Z,100048.14
2019-01-04T12:52:29.122Z,100044.56
2019-01-04T12:55:33.557Z,100038.09
2019-01-04T12:58:38.007Z,100029.16
2019-01-04T13:01:42.449Z,100033.97
2019-01-04T13:04:46.885Z,100032.22
2019-01-04T13:07:51.323Z,100030.75
2019-01-04T13:10:55.757Z,100019.23
2019-01-04T13:14:00.279Z,100016.13
2019-01-04T13:17:04.722Z,100010.47
2019-01-04T13:20:09.445Z,100004.05
2019-01-04T13:23:13.884Z,99993.49
2019-01-04T13:26:18.601Z,99992.13
2019-01-04T13:29:23.330Z,100004.51
2019-01-04T13:32:28.059Z,100009.58
2019-01-04T13:35:32.503Z,100001.09
2019-01-04T13:38:36.948Z,100003.33
2019-01-04T13:41:41.390Z,100002.69
2019-01-04T13:44:45.823Z,99994.88
2019-01-04T13:47:50.582Z,100008.36
2019-01-04T13:50:55.318Z,100005.98
2019-01-04T13:53:59.759Z,100005.56
2019-01-04T13:57:05.298Z,100003.46
2019-01-04T14:00:11.047Z,100001.62
2019-01-04T14:03:15.482Z,99981.67
2019-01-04T14:06:19.909Z,99978.59
2019-01-04T14:09:24.349Z,99955.92
2019-01-04T14:12:28.856Z,99952.24
2019-01-04T14:15:33.290Z,99943.94
2019-01-04T14:18:37.996Z,99950.94
2019-01-04T14:21:42.424Z,99963.47
2019-01-04T14:24:46.861Z,99962.41
2019-01-04T14:27:51.569Z,99942.96
2019-01-04T14:30:56.565Z,99933.47
2019-01-04T14:34:01.443Z,99933.97
2019-01-04T14:37:06.175Z,99932.63
2019-01-04T14:40:11.851Z,99921.89
2019-01-04T14:43:16.562Z,99932.58
2019-01-04T14:46:20.992Z,99932.87
2019-01-04T14:49:26.711Z,99932.09
2019-01-04T14:52:31.138Z,99931.84
2019-01-04T14:55:35.578Z,99929.54
2019-01-04T14:58:40.309Z,99938.93
2019-01-04T15:01:44.749Z,99935.67
2019-01-04T15:04:49.519Z,99926.10
2019-01-04T15:07:53.895Z,99913.16
2019-01-04T15:10:58.341Z,99911.93
2019-01-04T15:14:02.776Z,99884.13
2019-01-04T15:17:07.468Z,99878.87
2019-01-04T15:20:12.198Z,99867.31
2019-01-04T15:23:16.627Z,99873.58
2019-01-04T15:26:21.355Z,99863.13
2019-01-04T15:29:26.088Z,99854.88
2019-01-04T15:32:30.821Z,99846.83
2019-01-04T15:35:35.258Z,99836.47
2019-01-04T15:38:39.686Z,99849.07
2019-01-04T15:41:44.131Z,99860.44
2019-01-04T15:44:48.570Z,99855.97
2019-01-04T15:47:53.005Z,99855.52
2019-01-04T15:50:57.771Z,99849.02
2019-01-04T15:54:02.496Z,99863.58
2019-01-04T15:57:07.119Z,99865.39
2019-01-04T16:00:12.991Z,99867.17
2019-01-04T16:03:17.420Z,99873.71
2019-01-04T16:06:21.859Z,99878.89
2019-01-04T16:09:26.560Z,99880.45
2019-01-04T16:12:31.293Z,99883.13
2019-01-04T16:15:36.022Z,99883.58
2019-01-04T16:18:40.754Z,99883.45
2019-01-04T16:21:45.247Z,99890.23
2019-01-04T16:24:49.688Z,99903.58
2019-01-04T16:27:54.436Z,99896.54
2019-01-04T16:30:58.873Z,99904.14
2019-01-04T16:34:03.586Z,99904.69
2019-01-04T16:37:08.024Z,99916.50
2019-01-04T16:40:12.535Z,99925.22
2019-01-04T16:43:16.969Z,99923.86
2019-01-04T16:46:21.787Z,99914.72
2019-01-04T16:49:27.989Z,99913.23
2019-01-04T16:52:32.430Z,99898.56
2019-01-04T16:55:36.866Z,99895.98
2019-01-04T16:58:41.639Z,99891.72
2019-01-04T17:01:46.083Z,99889.22
2019-01-04T17:04:50.516Z,99892.66
2019-01-04T17:07:55.215Z,99899.36
2019-01-04T17:10:59.948Z,99887.14
2019-01-04T17:14:04.384Z,99885.67
2019-01-04T17:17:08.830Z,99897.55
2019-01-04T17:20:13.625Z,99898.30
2019-01-04T17:23:18.062Z,99904.47
2019-01-04T17:26:22.785Z,99921.52
2019-01-04T17:29:27.224Z,99922.36
2019-01-04T17:32:31.934Z,99925.02
2019-01-04T17:35:36.874Z,99929.14
2019-01-04T17:38:41.319Z,99928.92
2019-01-04T17:41:45.763Z,99920.25
2019-01-04T17:44:50.196Z,99907.50
2019-01-04T17:47:54.649Z,99902.50
2019-01-04T17:50:59.124Z,99894.66
2019-01-04T17:54:03.521Z,99895.23
2019-01-04T17:57:07.960Z,99894.06
2019-01-04T18:00:12.962Z,99891.86
2019-01-04T18:03:17.409Z,99882.22
2019-01-04T18:06:21.860Z,99888.30
2019-01-04T18:09:26.292Z,99892.66
2019-01-04T18:12:30.735Z,99886.83
2019-01-04T18:15:35.181Z,99876.47
2019-01-04T18:18:39.616Z,99870.03
2019-01-04T18:21:44.053Z,99869.70
2019-01-04T18:24:48.774Z,99872.13
2019-01-04T18:27:53.221Z,99875.91
2019-01-04T18:30:57.646Z,99889.56
2019-01-04T18:34:02.147Z,99888.61
2019-01-04T18:37:06.587Z,99883.05
2019-01-04T18:40:11.457Z,99880.76
2019-01-04T18:43:16.238Z,99883.58
2019-01-04T18:46:20.684Z,99882.64
2019-01-04T18:49:25.161Z,99875.73
2019-01-04T18:52:29.583Z,99871.50
2019-01-04T18:55:34.020Z,99865.38
2019-01-04T18:58:38.771Z,99864.55
2019-01-04T19:01:43.203Z,99858.05
2019-01-04T19:04:47.635Z,99850.58
2019-01-04T19:07:52.343Z,99849.64
2019-01-04T19:10:57.082Z,99849.76
2019-01-04T19:14:01.808Z,99853.43
2019-01-04T19:17:06.247Z,99851.70
2019-01-04T19:20:10.963Z,99849.31
2019-01-04T19:23:15.695Z,99842.09
2019-01-04T19:26:20.147Z,99835.23
2019-01-04T19:29:24.843Z,99826.88
2019-01-04T19:32:29.578Z,99820.55
2019-01-04T19:35:34.010Z,99823.84
2019-01-04T19:38:38.453Z,99819.13
2019-01-04T19:41:42.889Z,99817.45
2019-01-04T19:44:47.326Z,99809.84
2019-01-04T19:47:52.105Z,99807.55
2019-01-04T19:50:56.846Z,99809.30
2019-01-04T19:54:01.565Z,99801.70
2019-01-04T19:57:06.292Z,99807.59
2019-01-04T20:00:11.218Z,99805.09
2019-01-04T20:03:15.976Z,99802.28
2019-01-04T20:06:48.218Z,99812.50
2019-01-04T20:10:19.965Z,99805.97
2019-01-04T20:14:01.549Z,99810.83
2019-01-04T20:17:07.619Z,99814.66
2019-01-04T20:20:24.705Z,99825.09
2019-01-04T20:23:43.131Z,99818.82
2019-01-04T20:26:49.208Z,99817.45
2019-01-04T20:30:11.549Z,99815.01
2019-01-04T20:33:20.887Z,99815.74
2019-01-04T20:36:29.621Z,99811.63
2019-01-04T20:39:41.737Z,99812.75
2019-01-04T20:42:57.091Z,99819.75
2019-01-04T20:46:09.296Z,99815.88
2019-01-04T20:49:31.385Z,99822.75
2019-01-04T20:52:35.586Z,99831.83
2019-01-04T20:55:57.736Z,99827.91
2019-01-04T20:59:07.022Z,99830.60
2019-01-04T21:02:29.107Z,99832.07
2019-01-04T21:05:45.063Z,99825.50
2019-01-04T21:09:06.178Z,99830.55
2019-01-04T21:12:21.451Z,99829.38
2019-01-04T21:15:28.107Z,99831.59
2019-01-04T21:18:50.569Z,99839.71
2019-01-04T21:22:03.565Z,99835.31
2019-01-04T21:25:13.446Z,99831.08
2019-01-04T21:28:20.633Z,99828.07
2019-01-04T21:34:49.977Z,99826.96
2019-01-04T21:38:04.932Z,99830.20
2019-01-04T21:41:17.928Z,99821.84
2019-01-04T21:44:24.005Z,99825.83
2019-01-04T21:47:45.336Z,99827.88
2019-01-04T21:51:07.493Z,99828.52
2019-01-04T21:54:16.265Z,99826.98
2019-01-04T21:57:38.956Z,99827.59
2019-01-04T22:00:45.035Z,99831.42
2019-01-04T22:03:51.106Z,99839.76
2019-01-04T22:07:04.433Z,99844.37
2019-01-04T22:10:13.409Z,99842.88
2019-01-04T22:13:25.746Z,99843.06
2019-01-04T22:16:43.816Z,99840.75
2019-01-04T22:19:50.162Z,99846.85
2019-01-04T22:22:56.531Z,99846.05
2019-01-04T22:26:18.899Z,99847.05
2019-01-04T22:29:33.811Z,99840.18
2019-01-04T22:32:39.892Z,99831.83
2019-01-04T22:35:48.955Z,99841.20
2019-01-04T22:38:57.756Z,99837.77
2019-01-04T22:42:20.619Z,99838.36
2019-01-04T22:45:44.974Z,99839.09
2019-01-04T22:49:06.326Z,99829.93
2019-01-04T22:52:28.718Z,99833.80
2019-01-04T22:55:40.686Z,99820.50
2019-01-04T22:58:45.214Z,99823.48
2019-01-04T23:01:53.944Z,99817.35
2019-01-04T23:05:14.947Z,99810.52
2019-01-04T23:08:26.749Z,99814.32
2019-01-04T23:11:32.827Z,99812.36
2019-01-04T23:14:47.970Z,99812.59
2019-01-04T23:17:56.743Z,99815.34
2019-01-04T23:21:46.900Z,99818.23
2019-01-04T23:24:53.790Z,99812.53
2019-01-04T23:28:17.617Z,99812.69
2019-01-04T23:31:29.604Z,99814.26
2019-01-04T23:34:44.779Z,99813.17
2019-01-04T23:37:59.909Z,99809.70
2019-01-04T23:41:17.917Z,99797.98
2019-01-04T23:44:24.319Z,99796.94
2019-01-04T23:47:33.452Z,99797.34
2019-01-04T23:50:39.659Z,99789.84
2019-01-04T23:53:57.952Z,99790.52
2019-01-04T23:57:20.337Z,99786.59
